createdAt,value
2022-11-29T00:03:32.327Z,52.60
2022-11-29T00:08:33.065Z,51.80
2022-11-29T00:13:33.744Z,52.90
2022-11-29T00:18:34.477Z,53.10
2022-11-29T00:23:35.248Z,52.30
2022-11-29T00:28:36.004Z,56.30
2022-11-29T00:33:36.697Z,52.60
2022-11-29T00:38:37.438Z,52.10
2022-11-29T00:43:38.210Z,54.90
2022-11-29T00:48:38.950Z,54.50
2022-11-29T00:53:39.702Z,56.00
2022-11-29T00:58:40.474Z,57.10
2022-11-29T01:03:41.227Z,53.70
2022-11-29T01:08:41.937Z,54.00
2022-11-29T01:13:42.858Z,53.30
2022-11-29T01:18:43.542Z,54.50
2022-11-29T01:23:44.296Z,55.30
2022-11-29T01:28:45.019Z,56.30
2022-11-29T01:33:45.804Z,54.60
2022-11-29T01:38:46.569Z,56.80
2022-11-29T01:43:47.257Z,55.50
2022-11-29T01:48:47.986Z,56.00
2022-11-29T01:53:48.710Z,56.50
2022-11-29T01:58:49.402Z,55.50
2022-11-29T02:03:50.112Z,56.90
2022-11-29T02:08:50.865Z,55.30
2022-11-29T02:13:51.639Z,57.40
2022-11-29T02:18:52.354Z,58.50
2022-11-29T02:23:53.072Z,57.00
2022-11-29T02:28:53.809Z,57.80
2022-11-29T02:33:54.526Z,57.60
2022-11-29T02:38:55.242Z,57.90
2022-11-29T02:43:55.980Z,56.70
2022-11-29T02:48:56.722Z,54.70
2022-11-29T02:53:57.402Z,57.30
2022-11-29T02:58:58.120Z,58.10
2022-11-29T03:03:58.861Z,58.80
2022-11-29T03:08:59.550Z,57.90
2022-11-29T03:14:00.273Z,62.50
2022-11-29T03:19:01.048Z,54.90
2022-11-29T03:24:01.776Z,57.60
2022-11-29T03:29:02.501Z,59.00
2022-11-29T03:34:03.232Z,59.40
2022-11-29T03:39:03.961Z,59.50
2022-11-29T03:44:04.678Z,58.40
2022-11-29T03:49:05.436Z,61.50
2022-11-29T03:54:06.331Z,57.20
2022-11-29T03:59:07.073Z,60.00
2022-11-29T04:04:07.792Z,58.90
2022-11-29T04:09:08.497Z,59.20
2022-11-29T04:14:16.591Z,61.90
2022-11-29T04:19:09.853Z,57.60
2022-11-29T04:24:10.608Z,63.20
2022-11-29T04:29:11.389Z,58.30
2022-11-29T04:34:12.177Z,58.90
2022-11-29T04:39:12.898Z,54.00
2022-11-29T04:44:13.679Z,60.10
2022-11-29T04:49:14.422Z,56.30
2022-11-29T04:54:15.206Z,59.50
2022-11-29T04:59:15.923Z,57.70
2022-11-29T05:04:16.700Z,59.10
2022-11-29T05:09:17.415Z,66.60
2022-11-29T05:14:18.188Z,61.30
2022-11-29T05:19:18.888Z,61.20
2022-11-29T05:24:19.650Z,59.10
2022-11-29T05:29:20.394Z,56.90
2022-11-29T05:34:21.157Z,58.20
2022-11-29T05:39:21.854Z,57.20
2022-11-29T05:44:22.567Z,62.10
2022-11-29T05:49:23.294Z,65.90
2022-11-29T05:54:24.102Z,61.40
2022-11-29T05:59:24.806Z,62.60
2022-11-29T06:04:25.481Z,63.20
2022-11-29T06:09:26.199Z,58.30
2022-11-29T06:14:26.907Z,61.30
2022-11-29T06:19:28.670Z,63.90
2022-11-29T06:24:28.378Z,62.70
2022-11-29T06:29:29.060Z,58.10
2022-11-29T06:34:30.994Z,63.20
2022-11-29T06:39:30.507Z,60.60
2022-11-29T06:44:31.163Z,61.30
2022-11-29T06:49:31.849Z,58.60
2022-11-29T06:54:32.523Z,58.00
2022-11-29T06:59:33.173Z,61.50
2022-11-29T07:04:33.844Z,58.00
2022-11-29T07:09:34.516Z,60.10
2022-11-29T07:14:35.204Z,64.00
2022-11-29T07:19:35.858Z,59.00
2022-11-29T07:24:36.522Z,57.30
2022-11-29T07:29:37.177Z,61.40
2022-11-29T07:34:37.885Z,58.20
2022-11-29T07:39:38.534Z,71.60
2022-11-29T07:44:39.196Z,64.00
2022-11-29T07:49:39.868Z,63.00
2022-11-29T07:54:40.563Z,59.90
2022-11-29T07:59:41.206Z,55.40
2022-11-29T08:04:42.014Z,56.10
2022-11-29T08:09:42.852Z,58.80
2022-11-29T08:14:43.607Z,55.50
2022-11-29T08:19:44.060Z,60.50
2022-11-29T08:24:45.019Z,57.40
2022-11-29T08:29:45.296Z,57.30
2022-11-29T08:34:46.265Z,55.40
2022-11-29T08:39:46.575Z,58.10
2022-11-29T08:44:47.390Z,56.60
2022-11-29T08:49:48.165Z,57.50
2022-11-29T08:54:49.000Z,59.60
2022-11-29T08:59:49.617Z,62.20
2022-11-29T09:04:50.291Z,55.30
2022-11-29T09:09:50.969Z,53.80
2022-11-29T09:14:51.619Z,55.70
2022-11-29T09:19:52.305Z,57.10
2022-11-29T09:24:52.972Z,53.70
2022-11-29T09:29:53.650Z,57.10
2022-11-29T09:34:54.319Z,52.50
2022-11-29T09:39:54.953Z,56.30
2022-11-29T09:44:55.662Z,53.00
2022-11-29T09:49:56.290Z,57.00
2022-11-29T09:54:56.969Z,58.20
2022-11-29T09:59:57.637Z,56.50
2022-11-29T10:04:58.289Z,58.90
2022-11-29T10:09:58.964Z,55.30
2022-11-29T10:14:59.776Z,53.70
2022-11-29T10:20:00.436Z,56.40
2022-11-29T10:25:01.088Z,58.80
2022-11-29T10:30:01.799Z,57.70
2022-11-29T10:35:02.507Z,56.60
2022-11-29T10:40:03.156Z,55.80
2022-11-29T10:45:03.863Z,58.00
2022-11-29T10:50:04.516Z,57.40
2022-11-29T10:55:05.180Z,58.10
2022-11-29T11:00:05.859Z,60.90
2022-11-29T11:05:06.590Z,56.40
2022-11-29T11:10:07.263Z,58.50
2022-11-29T11:15:07.938Z,61.20
2022-11-29T11:20:08.592Z,59.80
2022-11-29T11:25:09.326Z,58.60
2022-11-29T11:30:09.985Z,58.90
2022-11-29T11:35:15.530Z,62.70
2022-11-29T11:40:12.225Z,61.70
2022-11-29T11:45:11.877Z,59.00
2022-11-29T11:50:12.519Z,59.60
2022-11-29T11:55:13.173Z,62.10
2022-11-29T12:00:13.946Z,62.80
2022-11-29T12:05:14.572Z,61.50
2022-11-29T12:10:15.215Z,62.50
2022-11-29T12:15:15.916Z,63.50
2022-11-29T12:20:16.560Z,65.60
2022-11-29T12:25:17.252Z,62.60
2022-11-29T12:30:17.916Z,64.20
2022-11-29T12:35:19.194Z,66.50
2022-11-29T12:40:19.390Z,62.10
2022-11-29T12:45:20.063Z,66.40
2022-11-29T12:50:20.707Z,60.90
2022-11-29T12:55:21.394Z,63.90
2022-11-29T13:00:22.054Z,63.10
2022-11-29T13:05:22.751Z,67.00
2022-11-29T13:10:23.385Z,67.60
2022-11-29T13:15:24.060Z,67.40
2022-11-29T13:20:24.758Z,65.80
2022-11-29T13:25:25.790Z,66.30
2022-11-29T13:30:25.947Z,65.70
2022-11-29T13:35:26.653Z,68.90
2022-11-29T13:40:27.299Z,65.30
2022-11-29T13:45:27.924Z,69.40
2022-11-29T13:50:28.577Z,68.90
2022-11-29T13:55:29.294Z,69.30
2022-11-29T14:00:29.917Z,71.60
2022-11-29T14:05:30.568Z,70.90
2022-11-29T14:10:31.234Z,68.80
2022-11-29T14:15:31.899Z,70.40
2022-11-29T14:20:32.601Z,69.10
2022-11-29T14:30:34.802Z,67.30
2022-11-29T14:35:34.494Z,68.10
2022-11-29T14:40:35.132Z,70.10
2022-11-29T14:45:35.797Z,66.10
2022-11-29T14:50:36.476Z,72.30
2022-11-29T14:55:37.131Z,65.30
2022-11-29T15:00:37.812Z,65.90
2022-11-29T15:05:38.499Z,68.20
2022-11-29T15:10:39.160Z,67.50
2022-11-29T15:15:39.842Z,63.60
2022-11-29T15:20:40.517Z,64.30
2022-11-29T15:25:41.165Z,65.00
2022-11-29T15:30:41.864Z,61.40
2022-11-29T15:35:42.605Z,64.60
2022-11-29T15:40:43.330Z,64.60
2022-11-29T15:45:44.090Z,63.50
2022-11-29T15:50:44.776Z,66.80
2022-11-29T15:55:45.520Z,65.30
2022-11-29T16:00:46.243Z,67.40
2022-11-29T16:05:46.949Z,65.70
2022-11-29T16:10:47.663Z,66.50
2022-11-29T16:15:48.429Z,69.50
2022-11-29T16:20:49.160Z,70.10
2022-11-29T16:25:49.908Z,68.60
2022-11-29T16:30:50.616Z,71.30
2022-11-29T16:35:51.311Z,72.50
2022-11-29T16:40:52.066Z,72.90
2022-11-29T16:45:52.850Z,68.60
2022-11-29T16:50:53.507Z,72.20
2022-11-29T16:55:54.184Z,71.10
2022-11-29T17:00:54.992Z,71.80
2022-11-29T17:05:57.823Z,71.00
2022-11-29T17:10:56.554Z,78.00
2022-11-29T17:15:57.368Z,74.90
2022-11-29T17:20:58.066Z,74.70
2022-11-29T17:25:58.744Z,73.50
2022-11-29T17:30:59.507Z,76.70
2022-11-29T17:36:00.256Z,75.80
2022-11-29T17:41:00.963Z,70.40
2022-11-29T17:46:01.977Z,70.10
2022-11-29T17:51:02.218Z,73.00
2022-11-29T17:56:02.908Z,73.60
2022-11-29T18:01:03.670Z,72.50
2022-11-29T18:06:04.484Z,72.00
2022-11-29T18:11:05.249Z,72.90
2022-11-29T18:16:05.950Z,73.80
2022-11-29T18:21:06.714Z,74.10
2022-11-29T18:26:07.418Z,70.40
2022-11-29T18:31:08.173Z,75.80
2022-11-29T18:36:08.868Z,76.30
2022-11-29T18:41:09.524Z,74.50
2022-11-29T18:46:10.417Z,74.80
2022-11-29T18:51:11.193Z,74.50
2022-11-29T18:56:11.919Z,74.00
2022-11-29T19:01:12.689Z,75.40
2022-11-29T19:06:13.473Z,77.30
2022-11-29T19:11:15.227Z,75.70
2022-11-29T19:16:16.133Z,77.00
2022-11-29T19:21:15.876Z,80.30
2022-11-29T19:26:16.625Z,78.30
2022-11-29T19:31:17.424Z,74.40
2022-11-29T19:36:18.475Z,76.80
2022-11-29T19:41:18.788Z,79.80
2022-11-29T19:46:19.699Z,75.20
2022-11-29T19:51:20.564Z,74.90
2022-11-29T19:56:21.304Z,77.90
2022-11-29T20:01:22.318Z,76.40
2022-11-29T20:06:22.591Z,78.90
2022-11-29T20:11:23.354Z,80.50
2022-11-29T20:16:24.136Z,77.10
2022-11-29T20:21:24.884Z,77.30
2022-11-29T20:26:25.657Z,79.30
2022-11-29T20:31:26.444Z,78.70
2022-11-29T20:36:27.193Z,76.90
2022-11-29T20:41:27.941Z,79.10
2022-11-29T20:46:28.784Z,77.50
2022-11-29T20:51:29.557Z,81.50
2022-11-29T20:56:30.524Z,80.40
2022-11-29T21:01:31.320Z,79.50
2022-11-29T21:06:32.054Z,79.60
2022-11-29T21:11:32.766Z,81.00
2022-11-29T21:16:33.596Z,83.10
2022-11-29T21:21:34.421Z,80.00
2022-11-29T21:26:41.332Z,81.40
2022-11-29T21:31:36.794Z,83.50
2022-11-29T21:36:36.645Z,82.90
2022-11-29T21:41:37.374Z,81.30
2022-11-29T21:46:38.146Z,81.40
2022-11-29T21:51:38.890Z,82.90
2022-11-29T21:56:39.648Z,82.60
2022-11-29T22:01:40.543Z,79.50
2022-11-29T22:06:41.297Z,84.80
2022-11-29T22:11:42.174Z,82.90
2022-11-29T22:16:42.926Z,83.50
2022-11-29T22:21:43.653Z,86.70
2022-11-29T22:26:44.423Z,87.30
2022-11-29T22:31:45.348Z,82.70
2022-11-29T22:36:53.057Z,87.00
2022-11-29T22:41:52.308Z,83.90
2022-11-29T22:46:48.572Z,90.00
2022-11-29T22:51:48.105Z,88.40
2022-11-29T22:56:49.008Z,89.70
2022-11-29T23:01:49.819Z,91.30
2022-11-29T23:06:50.599Z,87.00
2022-11-29T23:11:51.365Z,84.10
2022-11-29T23:16:52.167Z,89.70
2022-11-29T23:21:52.921Z,84.80
2022-11-29T23:26:53.640Z,89.00
2022-11-29T23:31:54.455Z,93.40
2022-11-29T23:36:55.178Z,93.60
2022-11-29T23:41:56.024Z,90.30
2022-11-29T23:46:56.691Z,94.70
2022-11-29T23:51:57.544Z,86.80
2022-11-29T23:56:58.305Z,87.10
